createdAt,value
2018-06-17T00:02:24.225Z,4.83
2018-06-17T00:04:52.634Z,5.33
2018-06-17T00:07:21.110Z,5.10
2018-06-17T00:09:49.485Z,4.87
2018-06-17T00:12:17.970Z,5.30
2018-06-17T00:14:46.403Z,4.30
2018-06-17T00:17:14.853Z,5.12
2018-06-17T00:19:43.353Z,4.72
2018-06-17T00:22:11.898Z,4.62
2018-06-17T00:24:40.319Z,4.50
2018-06-17T00:27:08.753Z,5.12
2018-06-17T00:29:37.201Z,5.00
2018-06-17T00:32:05.626Z,4.80
2018-06-17T00:34:34.089Z,5.20
2018-06-17T00:37:02.544Z,5.00
2018-06-17T00:39:30.963Z,4.25
2018-06-17T00:41:59.397Z,4.90
2018-06-17T00:44:27.824Z,4.42
2018-06-17T00:46:56.259Z,4.50
2018-06-17T00:49:24.725Z,4.95
2018-06-17T00:51:53.157Z,4.45
2018-06-17T00:54:21.612Z,4.65
2018-06-17T00:56:55.365Z,4.45
2018-06-17T00:59:23.809Z,4.87
2018-06-17T01:01:52.237Z,5.05
2018-06-17T01:04:20.720Z,4.22
2018-06-17T01:06:49.127Z,4.58
2018-06-17T01:09:17.552Z,4.80
2018-06-17T01:11:45.973Z,4.65
2018-06-17T01:14:15.428Z,5.05
2018-06-17T01:16:43.887Z,4.80
2018-06-17T01:19:12.052Z,4.72
2018-06-17T01:21:40.530Z,4.95
2018-06-17T01:24:08.959Z,3.98
2018-06-17T01:26:37.393Z,4.50
2018-06-17T01:29:05.823Z,5.30
2018-06-17T01:31:34.249Z,4.33
2018-06-17T01:34:02.701Z,4.80
2018-06-17T01:36:31.100Z,4.47
2018-06-17T01:38:59.532Z,4.03
2018-06-17T01:41:27.988Z,4.33
2018-06-17T01:43:56.424Z,4.03
2018-06-17T01:46:24.842Z,4.33
2018-06-17T01:48:53.256Z,4.10
2018-06-17T01:51:21.693Z,4.25
2018-06-17T01:53:50.135Z,4.15
2018-06-17T01:56:18.532Z,3.90
2018-06-17T01:58:46.956Z,4.47
2018-06-17T02:01:15.394Z,4.47
2018-06-17T02:03:49.143Z,4.47
2018-06-17T02:06:22.867Z,3.87
2018-06-17T02:08:56.701Z,4.05
2018-06-17T02:11:30.541Z,4.05
2018-06-17T02:15:01.838Z,3.55
2018-06-17T02:17:30.248Z,5.17
2018-06-17T02:19:58.693Z,4.35
2018-06-17T02:22:27.105Z,4.22
2018-06-17T02:24:55.557Z,4.00
2018-06-17T02:27:23.994Z,4.47
2018-06-17T02:29:52.547Z,4.12
2018-06-17T02:32:21.013Z,4.37
2018-06-17T02:34:49.478Z,4.35
2018-06-17T02:37:17.861Z,4.05
2018-06-17T02:39:46.305Z,4.47
2018-06-17T02:42:14.702Z,4.40
2018-06-17T02:44:43.136Z,4.05
2018-06-17T02:47:17.042Z,4.75
2018-06-17T02:49:47.708Z,3.67
2018-06-17T02:52:21.524Z,3.52
2018-06-17T02:54:50.140Z,4.50
2018-06-17T02:57:19.739Z,4.45
2018-06-17T02:59:48.323Z,3.92
2018-06-17T03:02:17.193Z,4.12
2018-06-17T03:04:45.629Z,3.83
2018-06-17T03:07:14.043Z,4.33
2018-06-17T03:09:42.570Z,4.00
2018-06-17T03:12:10.981Z,4.20
2018-06-17T03:14:39.381Z,3.95
2018-06-17T03:17:07.880Z,4.08
2018-06-17T03:19:36.312Z,3.70
2018-06-17T03:22:04.780Z,4.15
2018-06-17T03:24:38.521Z,3.87
2018-06-17T03:27:12.176Z,3.50
2018-06-17T03:29:45.847Z,3.85
2018-06-17T03:32:19.643Z,3.72
2018-06-17T03:34:52.232Z,4.17
2018-06-17T03:37:20.678Z,3.52
2018-06-17T03:39:49.084Z,3.22
2018-06-17T03:42:17.535Z,3.87
2018-06-17T03:44:45.944Z,3.50
2018-06-17T03:47:14.372Z,3.98
2018-06-17T03:49:42.854Z,3.30
2018-06-17T03:52:10.989Z,3.40
2018-06-17T03:54:39.372Z,3.70
2018-06-17T03:57:07.848Z,3.17
2018-06-17T03:59:36.231Z,3.75
2018-06-17T04:02:04.681Z,3.17
2018-06-17T04:04:38.540Z,3.10
2018-06-17T04:07:07.161Z,3.02
2018-06-17T04:09:35.569Z,2.90
2018-06-17T04:12:04.017Z,3.65
2018-06-17T04:14:32.439Z,3.00
2018-06-17T04:17:06.291Z,3.20
2018-06-17T04:19:34.694Z,2.95
2018-06-17T04:22:03.202Z,3.50
2018-06-17T04:24:31.597Z,3.50
2018-06-17T04:27:00.152Z,2.90
2018-06-17T04:29:28.617Z,3.67
2018-06-17T04:31:57.080Z,3.15
2018-06-17T04:34:25.483Z,3.22
2018-06-17T04:36:53.926Z,3.25
2018-06-17T04:39:22.381Z,3.33
2018-06-17T04:41:50.795Z,3.35
2018-06-17T04:44:19.206Z,3.50
2018-06-17T04:46:48.016Z,3.17
2018-06-17T04:49:16.448Z,3.30
2018-06-17T04:51:44.929Z,3.30
2018-06-17T04:54:13.448Z,2.85
2018-06-17T04:56:41.927Z,3.45
2018-06-17T04:59:10.328Z,3.17
2018-06-17T05:01:38.780Z,3.27
2018-06-17T05:04:07.437Z,3.40
2018-06-17T05:06:35.853Z,2.75
2018-06-17T05:09:06.506Z,3.12
2018-06-17T05:11:34.921Z,3.00
2018-06-17T05:14:03.446Z,3.02
2018-06-17T05:16:32.057Z,2.65
2018-06-17T05:19:00.507Z,2.92
2018-06-17T05:21:28.928Z,3.02
2018-06-17T05:23:57.376Z,3.62
2018-06-17T05:26:25.789Z,3.50
2018-06-17T05:28:54.205Z,3.30
2018-06-17T05:31:22.685Z,3.00
2018-06-17T05:33:51.134Z,2.72
2018-06-17T05:36:19.524Z,2.77
2018-06-17T05:38:47.940Z,3.12
2018-06-17T05:41:16.356Z,3.02
2018-06-17T05:43:44.813Z,2.83
2018-06-17T05:46:13.269Z,3.00
2018-06-17T05:48:41.685Z,2.87
2018-06-17T05:51:10.093Z,2.87
2018-06-17T05:53:38.532Z,3.42
2018-06-17T05:56:06.958Z,3.75
2018-06-17T05:58:35.423Z,2.67
2018-06-17T06:01:03.870Z,3.10
2018-06-17T06:03:32.298Z,3.10
2018-06-17T06:06:00.706Z,3.33
2018-06-17T06:08:29.159Z,3.52
2018-06-17T06:10:57.566Z,2.87
2018-06-17T06:13:25.992Z,2.70
2018-06-17T06:15:54.426Z,2.90
2018-06-17T06:18:22.863Z,2.55
2018-06-17T06:20:51.281Z,2.62
2018-06-17T06:23:19.748Z,2.62
2018-06-17T06:25:48.173Z,2.27
2018-06-17T06:28:16.607Z,2.15
2018-06-17T06:30:45.029Z,2.60
2018-06-17T06:33:13.497Z,2.35
2018-06-17T06:35:41.893Z,2.37
2018-06-17T06:38:10.520Z,2.17
2018-06-17T06:40:38.908Z,2.17
2018-06-17T06:43:07.680Z,2.60
2018-06-17T06:45:36.251Z,2.10
2018-06-17T06:48:05.035Z,2.35
2018-06-17T06:50:33.550Z,2.22
2018-06-17T06:53:02.001Z,2.30
2018-06-17T06:55:30.484Z,2.58
2018-06-17T06:57:58.929Z,2.22
2018-06-17T07:00:27.404Z,2.27
2018-06-17T07:03:07.105Z,2.40
2018-06-17T07:05:46.756Z,2.37
2018-06-17T07:08:26.420Z,2.55
2018-06-17T07:10:54.858Z,2.15
2018-06-17T07:13:23.304Z,2.58
2018-06-17T07:16:02.974Z,2.40
2018-06-17T07:18:35.012Z,2.60
2018-06-17T07:21:03.500Z,2.80
2018-06-17T07:23:31.973Z,2.10
2018-06-17T07:26:44.881Z,2.60
2018-06-17T07:29:27.089Z,2.60
2018-06-17T07:31:55.534Z,2.65
2018-06-17T07:34:23.976Z,2.50
2018-06-17T07:36:52.408Z,2.27
2018-06-17T07:40:11.605Z,2.60
2018-06-17T07:42:40.014Z,2.30
2018-06-17T07:45:08.475Z,2.42
2018-06-17T07:47:36.885Z,2.45
2018-06-17T07:52:18.507Z,2.65
2018-06-17T07:54:47.264Z,2.98
2018-06-17T07:57:16.893Z,2.70
2018-06-17T07:59:45.508Z,2.70
2018-06-17T08:02:14.464Z,2.87
2018-06-17T08:04:42.939Z,2.75
2018-06-17T08:07:11.300Z,3.08
2018-06-17T08:09:39.740Z,2.40
2018-06-17T08:12:09.709Z,2.80
2018-06-17T08:14:38.285Z,2.45
2018-06-17T08:17:06.914Z,3.02
2018-06-17T08:19:35.420Z,2.90
2018-06-17T08:22:04.240Z,3.12
2018-06-17T08:24:33.216Z,3.00
2018-06-17T08:27:01.677Z,3.50
2018-06-17T08:29:30.093Z,2.80
2018-06-17T08:31:58.564Z,3.15
2018-06-17T08:34:27.030Z,2.45
2018-06-17T08:36:55.437Z,2.77
2018-06-17T08:39:24.728Z,3.12
2018-06-17T08:41:53.184Z,2.90
2018-06-17T08:44:22.044Z,2.95
2018-06-17T08:46:50.900Z,3.27
2018-06-17T08:49:19.949Z,3.52
2018-06-17T08:51:48.393Z,3.25
2018-06-17T08:54:16.824Z,4.12
2018-06-17T08:56:45.281Z,4.17
2018-06-17T08:59:13.696Z,3.85
2018-06-17T09:01:42.148Z,3.60
2018-06-17T09:04:10.536Z,3.77
2018-06-17T09:06:38.948Z,3.67
2018-06-17T09:09:09.732Z,3.90
2018-06-17T09:11:38.220Z,4.45
2018-06-17T09:14:06.806Z,4.28
2018-06-17T09:16:35.285Z,3.60
2018-06-17T09:19:03.725Z,4.15
2018-06-17T09:21:32.162Z,3.77
2018-06-17T09:24:00.728Z,4.28
2018-06-17T09:26:29.153Z,3.98
2018-06-17T09:28:57.691Z,3.95
2018-06-17T09:31:26.271Z,4.22
2018-06-17T09:33:54.704Z,3.95
2018-06-17T09:36:23.111Z,4.55
2018-06-17T09:38:51.530Z,4.50
2018-06-17T09:41:19.965Z,4.15
2018-06-17T09:43:48.425Z,3.85
2018-06-17T09:46:16.858Z,5.30
2018-06-17T09:48:45.326Z,5.05
2018-06-17T09:51:13.725Z,4.10
2018-06-17T09:53:42.626Z,4.33
2018-06-17T09:56:11.035Z,4.05
2018-06-17T09:58:39.645Z,4.50
2018-06-17T10:01:08.122Z,4.80
2018-06-17T10:03:36.616Z,4.92
2018-06-17T10:06:05.090Z,4.55
2018-06-17T10:08:33.548Z,4.92
2018-06-17T10:11:03.088Z,4.90
2018-06-17T10:13:33.162Z,4.90
2018-06-17T10:16:01.835Z,3.98
2018-06-17T10:18:30.842Z,4.60
2018-06-17T10:20:59.357Z,4.60
2018-06-17T10:23:27.840Z,4.72
2018-06-17T10:25:56.366Z,5.72
2018-06-17T10:28:25.958Z,5.03
2018-06-17T10:30:55.204Z,4.97
2018-06-17T10:33:23.893Z,5.83
2018-06-17T10:35:52.340Z,5.30
2018-06-17T10:38:20.740Z,6.22
2018-06-17T10:40:49.196Z,5.75
2018-06-17T10:43:19.864Z,5.83
2018-06-17T10:45:48.333Z,5.67
2018-06-17T10:48:16.732Z,5.95
2018-06-17T10:50:45.296Z,5.90
2018-06-17T10:53:13.705Z,4.95
2018-06-17T10:55:42.520Z,5.15
2018-06-17T10:58:10.897Z,5.28
2018-06-17T11:00:39.415Z,5.87
2018-06-17T11:03:07.826Z,6.00
2018-06-17T11:05:36.288Z,5.95
2018-06-17T11:08:04.858Z,5.40
2018-06-17T11:10:33.492Z,5.28
2018-06-17T11:13:01.929Z,6.30
2018-06-17T11:15:30.353Z,5.47
2018-06-17T11:17:58.843Z,5.28
2018-06-17T11:20:27.716Z,5.47
2018-06-17T11:22:56.108Z,5.08
2018-06-17T11:25:24.543Z,5.15
2018-06-17T11:27:52.944Z,6.03
2018-06-17T11:30:21.908Z,5.97
2018-06-17T11:32:50.344Z,6.03
2018-06-17T11:35:18.769Z,5.87
2018-06-17T11:37:47.405Z,5.67
2018-06-17T11:40:15.852Z,5.00
2018-06-17T11:42:44.261Z,5.08
2018-06-17T11:45:12.712Z,5.80
2018-06-17T11:47:41.110Z,4.70
2018-06-17T11:50:09.563Z,5.92
2018-06-17T11:52:37.968Z,5.35
2018-06-17T11:55:06.580Z,5.28
2018-06-17T11:57:35.290Z,5.40
2018-06-17T12:00:03.811Z,4.75
2018-06-17T12:02:32.240Z,6.37
2018-06-17T12:05:00.685Z,4.40
2018-06-17T12:07:29.089Z,5.00
2018-06-17T12:09:57.544Z,4.90
2018-06-17T12:12:26.023Z,4.83
2018-06-17T12:14:54.533Z,4.75
2018-06-17T12:17:23.696Z,4.53
2018-06-17T12:19:52.107Z,4.67
2018-06-17T12:22:20.516Z,4.70
2018-06-17T12:24:48.925Z,4.60
2018-06-17T12:27:17.370Z,4.28
2018-06-17T12:29:45.925Z,4.78
2018-06-17T12:32:14.344Z,4.12
2018-06-17T12:34:42.754Z,3.85
2018-06-17T12:37:11.192Z,4.20
2018-06-17T12:39:39.599Z,4.12
2018-06-17T12:42:08.049Z,3.67
2018-06-17T12:44:36.585Z,3.52
2018-06-17T12:47:05.104Z,3.77
2018-06-17T12:49:33.518Z,4.45
2018-06-17T12:52:01.941Z,3.95
2018-06-17T12:54:30.406Z,3.62
2018-06-17T12:56:58.857Z,3.30
2018-06-17T12:59:27.368Z,3.70
2018-06-17T13:01:55.901Z,3.15
2018-06-17T13:04:24.327Z,3.20
2018-06-17T13:06:52.456Z,3.35
2018-06-17T13:09:20.864Z,3.90
2018-06-17T13:11:49.369Z,2.90
2018-06-17T13:14:17.920Z,3.72
2018-06-17T13:16:46.447Z,3.20
2018-06-17T13:19:14.937Z,3.55
2018-06-17T13:21:43.335Z,3.70
2018-06-17T13:24:11.752Z,3.50
2018-06-17T13:26:40.200Z,4.00
2018-06-17T13:29:08.645Z,3.30
2018-06-17T13:31:37.099Z,3.72
2018-06-17T13:34:05.776Z,3.60
2018-06-17T13:36:34.895Z,3.42
2018-06-17T13:39:04.445Z,3.90
2018-06-17T13:41:32.890Z,3.72
2018-06-17T13:44:01.309Z,3.55
2018-06-17T13:46:29.716Z,3.47
2018-06-17T13:48:58.141Z,3.25
2018-06-17T13:51:26.583Z,3.35
2018-06-17T13:53:55.059Z,3.10
2018-06-17T13:56:23.524Z,3.35
2018-06-17T13:58:52.313Z,3.65
2018-06-17T14:01:20.812Z,3.47
2018-06-17T14:03:49.382Z,2.98
2018-06-17T14:06:17.825Z,3.42
2018-06-17T14:08:46.242Z,3.35
2018-06-17T14:11:14.649Z,3.60
2018-06-17T14:13:42.821Z,3.02
2018-06-17T14:16:11.264Z,3.20
2018-06-17T14:18:39.738Z,3.02
2018-06-17T14:21:08.225Z,3.50
2018-06-17T14:23:36.685Z,3.87
2018-06-17T14:26:05.263Z,3.67
2018-06-17T14:28:33.881Z,3.65
2018-06-17T14:31:02.300Z,3.40
2018-06-17T14:33:30.982Z,3.72
2018-06-17T14:35:59.387Z,3.42
2018-06-17T14:38:27.831Z,3.30
2018-06-17T14:41:01.517Z,3.58
2018-06-17T14:43:35.060Z,3.15
2018-06-17T14:46:08.860Z,4.20
2018-06-17T14:48:42.609Z,4.12
2018-06-17T14:51:16.188Z,3.05
2018-06-17T14:53:44.637Z,3.45
2018-06-17T14:56:12.721Z,3.30
2018-06-17T14:58:41.149Z,3.33
2018-06-17T15:01:09.870Z,2.85
2018-06-17T15:03:38.341Z,2.67
2018-06-17T15:06:07.548Z,2.87
2018-06-17T15:08:36.015Z,2.75
2018-06-17T15:11:04.451Z,2.80
2018-06-17T15:13:32.974Z,3.08
2018-06-17T15:16:01.424Z,3.27
2018-06-17T15:18:30.129Z,2.58
2018-06-17T15:20:58.548Z,2.85
2018-06-17T15:23:26.989Z,2.92
2018-06-17T15:25:55.421Z,2.70
2018-06-17T15:28:23.955Z,3.47
2018-06-17T15:30:52.421Z,2.67
2018-06-17T15:33:26.272Z,2.87
2018-06-17T15:36:00.134Z,2.77
2018-06-17T15:38:33.709Z,3.30
2018-06-17T15:41:07.536Z,3.20
2018-06-17T15:43:36.018Z,4.22
2018-06-17T15:46:04.465Z,4.00
2018-06-17T15:48:33.002Z,6.40
2018-06-17T15:51:01.642Z,2.67
2018-06-17T15:53:30.078Z,2.92
2018-06-17T15:55:58.546Z,2.70
2018-06-17T15:58:26.944Z,2.90
2018-06-17T16:00:55.514Z,3.42
2018-06-17T16:03:24.161Z,2.70
2018-06-17T16:05:52.627Z,2.37
2018-06-17T16:08:21.117Z,3.02
2018-06-17T16:10:50.296Z,2.95
2018-06-17T16:13:24.033Z,3.08
2018-06-17T16:15:57.768Z,2.47
2018-06-17T16:19:30.025Z,2.67
2018-06-17T16:21:58.537Z,2.70
2018-06-17T16:24:26.988Z,2.62
2018-06-17T16:26:55.645Z,2.90
2018-06-17T16:29:24.115Z,2.55
2018-06-17T16:31:52.696Z,3.10
2018-06-17T16:34:21.104Z,3.30
2018-06-17T16:36:49.525Z,3.05
2018-06-17T16:39:17.981Z,2.75
2018-06-17T16:41:46.653Z,2.45
2018-06-17T16:44:15.380Z,2.72
2018-06-17T16:46:43.837Z,2.98
2018-06-17T16:49:12.429Z,2.90
2018-06-17T16:51:46.284Z,2.85
2018-06-17T16:54:20.161Z,2.65
2018-06-17T16:56:54.224Z,2.83
2018-06-17T16:59:28.378Z,2.98
2018-06-17T17:01:57.019Z,3.20
2018-06-17T17:04:25.429Z,3.70
2018-06-17T17:07:24.657Z,12.75
2018-06-17T17:09:52.754Z,6.03
2018-06-17T17:12:21.871Z,6.70
2018-06-17T17:14:50.345Z,4.10
2018-06-17T17:17:19.025Z,3.10
2018-06-17T17:19:47.674Z,2.98
2018-06-17T17:22:16.099Z,3.87
2018-06-17T17:24:44.704Z,3.37
2018-06-17T17:27:13.543Z,3.90
2018-06-17T17:29:41.990Z,3.90
2018-06-17T17:32:15.899Z,2.87
2018-06-17T17:36:53.576Z,2.22
2018-06-17T17:39:27.445Z,2.17
2018-06-17T17:41:55.884Z,2.30
2018-06-17T17:44:24.273Z,2.17
2018-06-17T17:46:58.265Z,2.83
2018-06-17T17:49:26.675Z,1.60
2018-06-17T17:51:55.104Z,1.60
2018-06-17T17:54:23.673Z,1.42
2018-06-17T17:56:51.950Z,1.40
2018-06-17T17:59:20.389Z,1.17
2018-06-17T18:01:48.804Z,1.30
2018-06-17T18:04:17.237Z,1.10
2018-06-17T18:06:46.631Z,1.30
2018-06-17T18:09:15.055Z,1.22
2018-06-17T18:11:43.456Z,1.22
2018-06-17T18:14:12.038Z,1.30
2018-06-17T18:16:40.475Z,1.30
2018-06-17T18:19:08.900Z,1.00
2018-06-17T18:21:37.429Z,1.30
2018-06-17T18:24:05.981Z,0.85
2018-06-17T18:26:39.832Z,1.27
2018-06-17T18:29:13.587Z,1.20
2018-06-17T18:31:47.448Z,1.05
2018-06-17T18:34:21.089Z,1.42
2018-06-17T18:36:49.530Z,1.25
2018-06-17T18:39:17.972Z,1.50
2018-06-17T18:41:49.215Z,1.55
2018-06-17T18:44:17.604Z,1.52
2018-06-17T18:46:46.208Z,1.90
2018-06-17T18:49:14.628Z,2.33
2018-06-17T18:51:43.055Z,2.50
2018-06-17T18:54:12.049Z,2.85
2018-06-17T18:56:40.492Z,3.00
2018-06-17T18:59:08.891Z,3.98
2018-06-17T19:01:37.357Z,3.95
2018-06-17T19:04:05.797Z,3.95
2018-06-17T19:06:34.249Z,4.22
2018-06-17T19:09:08.152Z,4.75
2018-06-17T19:11:41.683Z,4.33
2018-06-17T19:14:15.340Z,3.87
2018-06-17T19:16:49.479Z,4.20
2018-06-17T19:19:17.885Z,4.40
2018-06-17T19:21:46.608Z,4.05
2018-06-17T19:24:15.017Z,4.20
2018-06-17T19:26:43.488Z,3.95
2018-06-17T19:29:11.973Z,3.45
2018-06-17T19:31:40.491Z,3.42
2018-06-17T19:34:08.931Z,3.75
2018-06-17T19:36:37.465Z,3.20
2018-06-17T19:39:08.934Z,4.10
2018-06-17T19:41:37.397Z,3.30
2018-06-17T19:44:05.564Z,3.35
2018-06-17T19:46:33.977Z,2.95
2018-06-17T19:49:02.568Z,3.42
2018-06-17T19:51:36.310Z,3.42
2018-06-17T19:56:17.893Z,2.77
2018-06-17T19:58:51.791Z,3.62
2018-06-17T20:01:20.224Z,3.10
2018-06-17T20:03:48.680Z,2.83
2018-06-17T20:06:17.156Z,2.87
2018-06-17T20:08:45.526Z,3.17
2018-06-17T20:11:13.615Z,2.90
2018-06-17T20:13:42.144Z,3.47
2018-06-17T20:16:10.533Z,3.15
2018-06-17T20:18:38.977Z,3.30
2018-06-17T20:21:07.525Z,2.87
2018-06-17T20:23:35.976Z,3.27
2018-06-17T20:26:04.404Z,3.12
2018-06-17T20:28:32.982Z,2.50
2018-06-17T20:31:05.698Z,2.52
2018-06-17T20:33:39.590Z,2.77
2018-06-17T20:36:13.204Z,3.02
2018-06-17T20:38:46.946Z,2.55
2018-06-17T20:41:20.712Z,2.67
2018-06-17T20:43:54.192Z,2.35
2018-06-17T20:46:22.686Z,2.47
2018-06-17T20:48:51.426Z,2.45
2018-06-17T20:51:20.146Z,3.42
2018-06-17T20:53:48.987Z,3.30
2018-06-17T20:56:17.547Z,3.30
2018-06-17T20:58:45.995Z,3.62
2018-06-17T21:01:14.437Z,3.60
2018-06-17T21:03:42.873Z,3.77
2018-06-17T21:06:11.292Z,3.17
2018-06-17T21:08:39.745Z,2.85
2018-06-17T21:11:08.132Z,2.65
2018-06-17T21:13:36.561Z,3.02
2018-06-17T21:16:05.006Z,3.35
2018-06-17T21:20:40.548Z,3.55
2018-06-17T21:23:14.344Z,2.62
2018-06-17T21:25:48.518Z,2.40
2018-06-17T21:28:17.125Z,3.37
2018-06-17T21:30:45.585Z,2.67
2018-06-17T21:33:14.160Z,3.30
2018-06-17T21:35:42.573Z,2.90
2018-06-17T21:38:11.002Z,3.15
2018-06-17T21:40:39.432Z,3.22
2018-06-17T21:43:07.856Z,2.75
2018-06-17T21:45:36.348Z,2.98
2018-06-17T21:48:04.804Z,3.02
2018-06-17T21:50:33.444Z,3.15
2018-06-17T21:53:01.864Z,2.95
2018-06-17T21:55:30.317Z,2.87
2018-06-17T21:57:58.787Z,2.95
2018-06-17T22:00:27.305Z,3.20
2018-06-17T22:02:55.745Z,3.33
2018-06-17T22:05:24.202Z,2.70
2018-06-17T22:07:57.841Z,2.72
2018-06-17T22:10:31.688Z,2.72
2018-06-17T22:13:01.473Z,3.02
2018-06-17T22:15:35.324Z,2.83
2018-06-17T22:18:04.631Z,2.67
2018-06-17T22:21:57.488Z,3.05
2018-06-17T22:24:25.888Z,2.90
2018-06-17T22:26:54.623Z,2.95
2018-06-17T22:29:23.079Z,2.77
2018-06-17T22:31:51.492Z,2.85
2018-06-17T22:34:19.904Z,2.92
2018-06-17T22:36:48.335Z,2.62
2018-06-17T22:39:16.721Z,2.67
2018-06-17T22:41:45.137Z,2.65
2018-06-17T22:44:13.568Z,2.92
2018-06-17T22:46:42.038Z,2.75
2018-06-17T22:49:10.456Z,2.50
2018-06-17T22:51:38.944Z,3.00
2018-06-17T22:54:18.614Z,2.45
2018-06-17T22:56:52.346Z,3.10
2018-06-17T22:59:26.097Z,3.25
2018-06-17T23:02:00.071Z,2.98
2018-06-17T23:04:33.810Z,2.85
2018-06-17T23:07:07.652Z,3.10
2018-06-17T23:09:39.206Z,2.92
2018-06-17T23:12:07.718Z,3.05
2018-06-17T23:14:36.104Z,3.15
2018-06-17T23:17:04.608Z,2.67
2018-06-17T23:19:33.129Z,3.37
2018-06-17T23:22:01.781Z,3.33
2018-06-17T23:24:30.185Z,2.62
2018-06-17T23:26:58.620Z,3.40
2018-06-17T23:29:27.029Z,3.65
2018-06-17T23:31:55.459Z,3.55
2018-06-17T23:34:23.868Z,3.10
2018-06-17T23:36:52.393Z,3.42
2018-06-17T23:39:20.849Z,3.52
2018-06-17T23:41:49.281Z,3.40
2018-06-17T23:44:17.689Z,3.08
2018-06-17T23:46:51.284Z,3.92
2018-06-17T23:49:24.929Z,3.50
2018-06-17T23:51:58.716Z,3.40
2018-06-17T23:54:32.580Z,3.75
2018-06-17T23:57:01.092Z,3.55
2018-06-17T23:59:29.692Z,3.65
